sensor_id;sensor_type;location;lat;lon;timestamp;P1;durP1;ratioP1;P2;durP2;ratioP2
57401;SDS011;43226;51.110;6.998;2023-09-12T00:00:01;8.40;;;5.43;;
57401;SDS011;43226;51.110;6.998;2023-09-12T00:02:28;5.87;;;5.27;;
57401;SDS011;43226;51.110;6.998;2023-09-12T00:04:54;10.23;;;5.33;;
57401;SDS011;43226;51.110;6.998;2023-09-12T00:07:19;6.33;;;4.73;;
57401;SDS011;43226;51.110;6.998;2023-09-12T00:09:44;10.03;;;5.30;;
57401;SDS011;43226;51.110;6.998;2023-09-12T00:12:12;16.17;;;5.50;;
57401;SDS011;43226;51.110;6.998;2023-09-12T00:14:38;6.37;;;4.93;;
57401;SDS011;43226;51.110;6.998;2023-09-12T00:17:03;8.97;;;5.07;;
57401;SDS011;43226;51.110;6.998;2023-09-12T00:19:28;7.53;;;5.10;;
57401;SDS011;43226;51.110;6.998;2023-09-12T00:21:53;9.80;;;5.03;;
57401;SDS011;43226;51.110;6.998;2023-09-12T00:24:18;9.03;;;5.03;;
57401;SDS011;43226;51.110;6.998;2023-09-12T00:26:44;7.40;;;4.43;;
57401;SDS011;43226;51.110;6.998;2023-09-12T00:29:09;4.90;;;4.40;;
57401;SDS011;43226;51.110;6.998;2023-09-12T00:31:34;4.20;;;3.53;;
57401;SDS011;43226;51.110;6.998;2023-09-12T00:33:59;10.93;;;4.40;;
57401;SDS011;43226;51.110;6.998;2023-09-12T00:36:24;7.40;;;4.60;;
57401;SDS011;43226;51.110;6.998;2023-09-12T00:38:50;8.20;;;4.30;;
57401;SDS011;43226;51.110;6.998;2023-09-12T00:41:15;6.27;;;4.00;;
57401;SDS011;43226;51.110;6.998;2023-09-12T00:43:40;5.23;;;4.70;;
57401;SDS011;43226;51.110;6.998;2023-09-12T00:46:05;4.30;;;3.90;;
57401;SDS011;43226;51.110;6.998;2023-09-12T00:48:30;7.13;;;4.40;;
57401;SDS011;43226;51.110;6.998;2023-09-12T00:50:56;10.27;;;4.53;;
57401;SDS011;43226;51.110;6.998;2023-09-12T00:53:21;7.90;;;4.70;;
57401;SDS011;43226;51.110;6.998;2023-09-12T00:55:48;5.73;;;4.70;;
57401;SDS011;43226;51.110;6.998;2023-09-12T00:58:17;6.87;;;3.97;;
57401;SDS011;43226;51.110;6.998;2023-09-12T01:00:43;4.37;;;3.97;;
57401;SDS011;43226;51.110;6.998;2023-09-12T01:03:08;6.70;;;3.80;;
57401;SDS011;43226;51.110;6.998;2023-09-12T01:05:33;5.70;;;3.87;;
57401;SDS011;43226;51.110;6.998;2023-09-12T01:07:59;5.80;;;4.20;;
57401;SDS011;43226;51.110;6.998;2023-09-12T01:10:24;10.23;;;4.23;;
57401;SDS011;43226;51.110;6.998;2023-09-12T01:12:50;8.90;;;5.00;;
57401;SDS011;43226;51.110;6.998;2023-09-12T01:15:15;10.73;;;4.10;;
57401;SDS011;43226;51.110;6.998;2023-09-12T01:17:42;5.40;;;4.20;;
57401;SDS011;43226;51.110;6.998;2023-09-12T01:20:08;6.23;;;4.03;;
57401;SDS011;43226;51.110;6.998;2023-09-12T01:22:46;5.43;;;4.10;;
57401;SDS011;43226;51.110;6.998;2023-09-12T01:25:24;6.60;;;4.40;;
57401;SDS011;43226;51.110;6.998;2023-09-12T01:27:53;6.93;;;4.27;;
57401;SDS011;43226;51.110;6.998;2023-09-12T01:30:20;7.20;;;4.30;;
57401;SDS011;43226;51.110;6.998;2023-09-12T01:32:46;5.43;;;4.10;;
57401;SDS011;43226;51.110;6.998;2023-09-12T01:35:12;5.40;;;4.30;;
57401;SDS011;43226;51.110;6.998;2023-09-12T01:37:37;6.43;;;3.80;;
57401;SDS011;43226;51.110;6.998;2023-09-12T01:40:02;4.30;;;3.50;;
57401;SDS011;43226;51.110;6.998;2023-09-12T01:42:30;4.00;;;3.60;;
57401;SDS011;43226;51.110;6.998;2023-09-12T01:44:56;4.67;;;4.23;;
57401;SDS011;43226;51.110;6.998;2023-09-12T01:47:21;10.57;;;4.87;;
57401;SDS011;43226;51.110;6.998;2023-09-12T01:49:48;5.30;;;4.43;;
57401;SDS011;43226;51.110;6.998;2023-09-12T01:52:14;7.57;;;4.83;;
57401;SDS011;43226;51.110;6.998;2023-09-12T01:54:39;8.00;;;4.97;;
57401;SDS011;43226;51.110;6.998;2023-09-12T01:57:05;6.73;;;4.20;;
57401;SDS011;43226;51.110;6.998;2023-09-12T01:59:30;6.90;;;4.90;;
57401;SDS011;43226;51.110;6.998;2023-09-12T02:01:56;10.73;;;5.30;;
57401;SDS011;43226;51.110;6.998;2023-09-12T02:04:21;6.73;;;6.10;;
57401;SDS011;43226;51.110;6.998;2023-09-12T02:06:46;10.00;;;5.20;;
57401;SDS011;43226;51.110;6.998;2023-09-12T02:09:12;5.80;;;5.00;;
57401;SDS011;43226;51.110;6.998;2023-09-12T02:11:37;8.40;;;5.10;;
57401;SDS011;43226;51.110;6.998;2023-09-12T02:14:02;5.90;;;4.10;;
57401;SDS011;43226;51.110;6.998;2023-09-12T02:16:28;6.10;;;4.90;;
57401;SDS011;43226;51.110;6.998;2023-09-12T02:18:54;5.73;;;4.70;;
57401;SDS011;43226;51.110;6.998;2023-09-12T02:21:19;6.03;;;4.53;;
57401;SDS011;43226;51.110;6.998;2023-09-12T02:23:44;6.10;;;4.83;;
57401;SDS011;43226;51.110;6.998;2023-09-12T02:26:09;5.20;;;3.93;;
57401;SDS011;43226;51.110;6.998;2023-09-12T02:28:35;7.67;;;5.07;;
57401;SDS011;43226;51.110;6.998;2023-09-12T02:31:00;5.95;;;5.00;;
57401;SDS011;43226;51.110;6.998;2023-09-12T02:33:25;6.13;;;4.87;;
57401;SDS011;43226;51.110;6.998;2023-09-12T02:35:50;6.23;;;5.00;;
57401;SDS011;43226;51.110;6.998;2023-09-12T02:38:16;7.43;;;4.60;;
57401;SDS011;43226;51.110;6.998;2023-09-12T02:40:41;10.30;;;5.47;;
57401;SDS011;43226;51.110;6.998;2023-09-12T02:43:06;10.67;;;5.17;;
57401;SDS011;43226;51.110;6.998;2023-09-12T02:45:32;8.50;;;5.93;;
57401;SDS011;43226;51.110;6.998;2023-09-12T02:47:57;8.60;;;6.73;;
57401;SDS011;43226;51.110;6.998;2023-09-12T02:50:22;8.97;;;6.70;;
57401;SDS011;43226;51.110;6.998;2023-09-12T02:52:47;9.17;;;6.10;;
57401;SDS011;43226;51.110;6.998;2023-09-12T02:55:12;10.40;;;6.40;;
57401;SDS011;43226;51.110;6.998;2023-09-12T02:57:37;12.70;;;7.47;;
57401;SDS011;43226;51.110;6.998;2023-09-12T03:00:03;12.60;;;6.95;;
57401;SDS011;43226;51.110;6.998;2023-09-12T03:02:31;9.13;;;7.27;;
57401;SDS011;43226;51.110;6.998;2023-09-12T03:04:56;12.80;;;6.30;;
57401;SDS011;43226;51.110;6.998;2023-09-12T03:07:22;8.00;;;6.50;;
57401;SDS011;43226;51.110;6.998;2023-09-12T03:09:50;12.83;;;7.80;;
57401;SDS011;43226;51.110;6.998;2023-09-12T03:12:15;12.60;;;7.40;;
57401;SDS011;43226;51.110;6.998;2023-09-12T03:14:40;13.60;;;6.90;;
57401;SDS011;43226;51.110;6.998;2023-09-12T03:17:05;11.43;;;7.27;;
57401;SDS011;43226;51.110;6.998;2023-09-12T03:19:31;10.87;;;7.50;;
57401;SDS011;43226;51.110;6.998;2023-09-12T03:21:56;8.20;;;7.40;;
57401;SDS011;43226;51.110;6.998;2023-09-12T03:24:21;13.57;;;8.60;;
57401;SDS011;43226;51.110;6.998;2023-09-12T03:26:49;18.60;;;9.13;;
57401;SDS011;43226;51.110;6.998;2023-09-12T03:29:14;13.27;;;8.60;;
57401;SDS011;43226;51.110;6.998;2023-09-12T03:31:39;13.70;;;9.47;;
57401;SDS011;43226;51.110;6.998;2023-09-12T03:34:05;14.70;;;8.90;;
57401;SDS011;43226;51.110;6.998;2023-09-12T03:36:30;13.60;;;8.60;;
57401;SDS011;43226;51.110;6.998;2023-09-12T03:38:55;10.90;;;8.57;;
57401;SDS011;43226;51.110;6.998;2023-09-12T03:41:20;16.10;;;8.83;;
57401;SDS011;43226;51.110;6.998;2023-09-12T03:43:50;13.33;;;7.97;;
57401;SDS011;43226;51.110;6.998;2023-09-12T03:46:15;13.37;;;7.90;;
57401;SDS011;43226;51.110;6.998;2023-09-12T03:48:40;12.60;;;8.20;;
57401;SDS011;43226;51.110;6.998;2023-09-12T03:51:05;11.30;;;8.80;;
57401;SDS011;43226;51.110;6.998;2023-09-12T03:53:30;9.57;;;7.30;;
57401;SDS011;43226;51.110;6.998;2023-09-12T03:55:57;10.13;;;7.43;;
57401;SDS011;43226;51.110;6.998;2023-09-12T03:58:22;19.23;;;8.20;;
57401;SDS011;43226;51.110;6.998;2023-09-12T04:00:47;13.33;;;8.07;;
57401;SDS011;43226;51.110;6.998;2023-09-12T04:03:12;11.33;;;7.87;;
57401;SDS011;43226;51.110;6.998;2023-09-12T04:05:37;14.23;;;7.57;;
57401;SDS011;43226;51.110;6.998;2023-09-12T04:08:03;9.73;;;7.63;;
57401;SDS011;43226;51.110;6.998;2023-09-12T04:10:28;10.03;;;7.30;;
57401;SDS011;43226;51.110;6.998;2023-09-12T04:12:53;13.10;;;7.43;;
57401;SDS011;43226;51.110;6.998;2023-09-12T04:15:18;10.00;;;6.80;;
57401;SDS011;43226;51.110;6.998;2023-09-12T04:17:44;11.80;;;7.60;;
57401;SDS011;43226;51.110;6.998;2023-09-12T04:20:09;9.70;;;7.23;;
57401;SDS011;43226;51.110;6.998;2023-09-12T04:22:38;15.80;;;6.80;;
57401;SDS011;43226;51.110;6.998;2023-09-12T04:25:04;11.38;;;6.65;;
57401;SDS011;43226;51.110;6.998;2023-09-12T04:27:29;9.63;;;7.33;;
57401;SDS011;43226;51.110;6.998;2023-09-12T04:29:54;9.90;;;6.70;;
57401;SDS011;43226;51.110;6.998;2023-09-12T04:32:19;11.20;;;6.90;;
57401;SDS011;43226;51.110;6.998;2023-09-12T04:34:48;11.53;;;7.10;;
57401;SDS011;43226;51.110;6.998;2023-09-12T04:37:13;10.87;;;6.20;;
57401;SDS011;43226;51.110;6.998;2023-09-12T04:39:38;6.83;;;5.90;;
57401;SDS011;43226;51.110;6.998;2023-09-12T04:42:04;11.20;;;6.77;;
57401;SDS011;43226;51.110;6.998;2023-09-12T04:44:30;8.43;;;6.60;;
57401;SDS011;43226;51.110;6.998;2023-09-12T04:46:55;10.50;;;6.40;;
57401;SDS011;43226;51.110;6.998;2023-09-12T04:49:21;7.90;;;5.77;;
57401;SDS011;43226;51.110;6.998;2023-09-12T04:51:46;13.70;;;6.70;;
57401;SDS011;43226;51.110;6.998;2023-09-12T04:54:11;11.37;;;6.37;;
57401;SDS011;43226;51.110;6.998;2023-09-12T04:56:36;11.67;;;6.00;;
57401;SDS011;43226;51.110;6.998;2023-09-12T04:59:01;9.67;;;6.10;;
57401;SDS011;43226;51.110;6.998;2023-09-12T05:01:27;13.53;;;6.00;;
57401;SDS011;43226;51.110;6.998;2023-09-12T05:03:52;10.63;;;6.80;;
57401;SDS011;43226;51.110;6.998;2023-09-12T05:06:17;9.13;;;6.13;;
57401;SDS011;43226;51.110;6.998;2023-09-12T05:08:42;8.90;;;6.70;;
57401;SDS011;43226;51.110;6.998;2023-09-12T05:11:08;6.83;;;6.00;;
57401;SDS011;43226;51.110;6.998;2023-09-12T05:13:33;7.23;;;5.53;;
57401;SDS011;43226;51.110;6.998;2023-09-12T05:15:58;7.37;;;5.33;;
57401;SDS011;43226;51.110;6.998;2023-09-12T05:18:24;12.93;;;5.50;;
57401;SDS011;43226;51.110;6.998;2023-09-12T05:20:49;5.80;;;5.17;;
57401;SDS011;43226;51.110;6.998;2023-09-12T05:23:14;7.80;;;5.80;;
57401;SDS011;43226;51.110;6.998;2023-09-12T05:25:39;11.80;;;5.97;;
57401;SDS011;43226;51.110;6.998;2023-09-12T05:28:04;18.63;;;6.13;;
57401;SDS011;43226;51.110;6.998;2023-09-12T05:30:30;8.80;;;5.67;;
57401;SDS011;43226;51.110;6.998;2023-09-12T05:32:55;10.53;;;6.00;;
57401;SDS011;43226;51.110;6.998;2023-09-12T05:35:20;12.03;;;5.57;;
57401;SDS011;43226;51.110;6.998;2023-09-12T05:37:45;6.70;;;6.00;;
57401;SDS011;43226;51.110;6.998;2023-09-12T05:40:11;6.23;;;5.30;;
57401;SDS011;43226;51.110;6.998;2023-09-12T05:42:36;12.73;;;5.60;;
57401;SDS011;43226;51.110;6.998;2023-09-12T05:45:01;9.80;;;6.40;;
57401;SDS011;43226;51.110;6.998;2023-09-12T05:47:27;7.93;;;5.57;;
57401;SDS011;43226;51.110;6.998;2023-09-12T05:49:52;10.63;;;6.40;;
57401;SDS011;43226;51.110;6.998;2023-09-12T05:52:17;7.43;;;5.97;;
57401;SDS011;43226;51.110;6.998;2023-09-12T05:54:42;7.70;;;5.77;;
57401;SDS011;43226;51.110;6.998;2023-09-12T05:57:08;15.27;;;6.83;;
57401;SDS011;43226;51.110;6.998;2023-09-12T05:59:35;11.03;;;6.07;;
57401;SDS011;43226;51.110;6.998;2023-09-12T06:02:01;10.93;;;5.90;;
57401;SDS011;43226;51.110;6.998;2023-09-12T06:04:26;13.93;;;6.70;;
57401;SDS011;43226;51.110;6.998;2023-09-12T06:06:51;7.80;;;5.90;;
57401;SDS011;43226;51.110;6.998;2023-09-12T06:09:17;10.90;;;6.50;;
57401;SDS011;43226;51.110;6.998;2023-09-12T06:11:42;14.85;;;10.60;;
57401;SDS011;43226;51.110;6.998;2023-09-12T06:14:07;16.55;;;10.77;;
57401;SDS011;43226;51.110;6.998;2023-09-12T06:16:32;17.00;;;11.33;;
57401;SDS011;43226;51.110;6.998;2023-09-12T06:18:57;13.47;;;10.10;;
57401;SDS011;43226;51.110;6.998;2023-09-12T06:21:22;17.23;;;11.20;;
57401;SDS011;43226;51.110;6.998;2023-09-12T06:23:48;16.63;;;10.70;;
57401;SDS011;43226;51.110;6.998;2023-09-12T06:26:13;21.13;;;11.07;;
57401;SDS011;43226;51.110;6.998;2023-09-12T06:28:39;20.83;;;10.90;;
57401;SDS011;43226;51.110;6.998;2023-09-12T06:31:07;14.40;;;10.20;;
57401;SDS011;43226;51.110;6.998;2023-09-12T06:33:32;14.77;;;10.33;;
57401;SDS011;43226;51.110;6.998;2023-09-12T06:35:57;14.23;;;9.87;;
57401;SDS011;43226;51.110;6.998;2023-09-12T06:38:22;13.93;;;9.17;;
57401;SDS011;43226;51.110;6.998;2023-09-12T06:40:48;11.00;;;8.07;;
57401;SDS011;43226;51.110;6.998;2023-09-12T06:43:14;13.60;;;9.53;;
57401;SDS011;43226;51.110;6.998;2023-09-12T06:45:42;12.47;;;9.50;;
57401;SDS011;43226;51.110;6.998;2023-09-12T06:48:08;11.80;;;9.30;;
57401;SDS011;43226;51.110;6.998;2023-09-12T06:50:33;11.70;;;8.27;;
57401;SDS011;43226;51.110;6.998;2023-09-12T06:52:59;11.83;;;7.07;;
57401;SDS011;43226;51.110;6.998;2023-09-12T06:55:24;10.70;;;7.00;;
57401;SDS011;43226;51.110;6.998;2023-09-12T06:57:49;8.90;;;6.47;;
57401;SDS011;43226;51.110;6.998;2023-09-12T07:00:15;8.20;;;6.40;;
57401;SDS011;43226;51.110;6.998;2023-09-12T07:02:40;11.80;;;7.20;;
57401;SDS011;43226;51.110;6.998;2023-09-12T07:05:05;8.00;;;6.60;;
57401;SDS011;43226;51.110;6.998;2023-09-12T07:07:31;10.27;;;6.83;;
57401;SDS011;43226;51.110;6.998;2023-09-12T07:09:57;8.07;;;5.77;;
57401;SDS011;43226;51.110;6.998;2023-09-12T07:12:22;7.30;;;5.80;;
57401;SDS011;43226;51.110;6.998;2023-09-12T07:14:47;5.20;;;4.70;;
57401;SDS011;43226;51.110;6.998;2023-09-12T07:17:12;6.63;;;5.47;;
57401;SDS011;43226;51.110;6.998;2023-09-12T07:19:38;6.27;;;5.43;;
57401;SDS011;43226;51.110;6.998;2023-09-12T07:22:03;8.47;;;6.07;;
57401;SDS011;43226;51.110;6.998;2023-09-12T07:24:28;7.23;;;5.80;;
57401;SDS011;43226;51.110;6.998;2023-09-12T07:26:53;9.47;;;6.60;;
57401;SDS011;43226;51.110;6.998;2023-09-12T07:29:19;8.67;;;5.90;;
57401;SDS011;43226;51.110;6.998;2023-09-12T07:31:44;9.60;;;6.17;;
57401;SDS011;43226;51.110;6.998;2023-09-12T07:34:09;9.40;;;6.27;;
57401;SDS011;43226;51.110;6.998;2023-09-12T07:36:35;11.40;;;6.63;;
57401;SDS011;43226;51.110;6.998;2023-09-12T07:39:01;7.70;;;6.10;;
57401;SDS011;43226;51.110;6.998;2023-09-12T07:41:26;6.93;;;6.10;;
57401;SDS011;43226;51.110;6.998;2023-09-12T07:43:51;12.25;;;6.85;;
57401;SDS011;43226;51.110;6.998;2023-09-12T07:46:16;14.20;;;7.63;;
57401;SDS011;43226;51.110;6.998;2023-09-12T07:48:41;7.57;;;6.10;;
57401;SDS011;43226;51.110;6.998;2023-09-12T07:51:13;9.70;;;6.87;;
57401;SDS011;43226;51.110;6.998;2023-09-12T07:53:39;8.73;;;6.53;;
57401;SDS011;43226;51.110;6.998;2023-09-12T07:56:04;11.47;;;5.97;;
57401;SDS011;43226;51.110;6.998;2023-09-12T07:58:29;10.63;;;6.68;;
57401;SDS011;43226;51.110;6.998;2023-09-12T08:00:55;9.85;;;6.80;;
57401;SDS011;43226;51.110;6.998;2023-09-12T08:03:20;10.57;;;7.10;;
57401;SDS011;43226;51.110;6.998;2023-09-12T08:05:54;7.23;;;6.53;;
57401;SDS011;43226;51.110;6.998;2023-09-12T08:08:19;7.20;;;5.77;;
57401;SDS011;43226;51.110;6.998;2023-09-12T08:10:44;7.30;;;6.23;;
57401;SDS011;43226;51.110;6.998;2023-09-12T08:13:11;7.63;;;6.13;;
57401;SDS011;43226;51.110;6.998;2023-09-12T08:15:36;6.60;;;4.10;;
57401;SDS011;43226;51.110;6.998;2023-09-12T08:18:01;4.57;;;4.17;;
57401;SDS011;43226;51.110;6.998;2023-09-12T08:20:26;5.90;;;4.10;;
57401;SDS011;43226;51.110;6.998;2023-09-12T08:22:52;4.80;;;4.23;;
57401;SDS011;43226;51.110;6.998;2023-09-12T08:25:17;6.33;;;4.87;;
57401;SDS011;43226;51.110;6.998;2023-09-12T08:27:42;5.20;;;4.70;;
57401;SDS011;43226;51.110;6.998;2023-09-12T08:30:10;6.70;;;4.47;;
57401;SDS011;43226;51.110;6.998;2023-09-12T08:32:35;5.60;;;4.17;;
57401;SDS011;43226;51.110;6.998;2023-09-12T08:35:00;5.40;;;3.97;;
57401;SDS011;43226;51.110;6.998;2023-09-12T08:37:25;5.57;;;4.00;;
57401;SDS011;43226;51.110;6.998;2023-09-12T08:39:52;6.53;;;4.80;;
57401;SDS011;43226;51.110;6.998;2023-09-12T08:42:21;9.37;;;4.70;;
57401;SDS011;43226;51.110;6.998;2023-09-12T08:44:47;5.70;;;5.10;;
57401;SDS011;43226;51.110;6.998;2023-09-12T08:47:12;8.00;;;4.97;;
57401;SDS011;43226;51.110;6.998;2023-09-12T08:49:38;5.90;;;4.83;;
57401;SDS011;43226;51.110;6.998;2023-09-12T08:52:04;6.30;;;5.03;;
57401;SDS011;43226;51.110;6.998;2023-09-12T08:54:30;5.23;;;4.73;;
57401;SDS011;43226;51.110;6.998;2023-09-12T08:56:55;5.93;;;4.97;;
57401;SDS011;43226;51.110;6.998;2023-09-12T08:59:21;6.93;;;4.57;;
57401;SDS011;43226;51.110;6.998;2023-09-12T09:01:46;7.20;;;5.00;;
57401;SDS011;43226;51.110;6.998;2023-09-12T09:04:11;7.50;;;5.20;;
57401;SDS011;43226;51.110;6.998;2023-09-12T09:06:37;8.97;;;4.70;;
57401;SDS011;43226;51.110;6.998;2023-09-12T09:09:04;7.30;;;5.87;;
57401;SDS011;43226;51.110;6.998;2023-09-12T09:11:30;5.30;;;4.47;;
57401;SDS011;43226;51.110;6.998;2023-09-12T09:13:55;8.47;;;5.70;;
57401;SDS011;43226;51.110;6.998;2023-09-12T09:16:21;5.60;;;4.83;;
57401;SDS011;43226;51.110;6.998;2023-09-12T09:18:54;4.80;;;4.40;;
57401;SDS011;43226;51.110;6.998;2023-09-12T09:21:20;6.53;;;4.90;;
57401;SDS011;43226;51.110;6.998;2023-09-12T09:23:47;5.23;;;4.73;;
57401;SDS011;43226;51.110;6.998;2023-09-12T09:26:12;5.97;;;4.97;;
57401;SDS011;43226;51.110;6.998;2023-09-12T09:28:37;5.40;;;4.63;;
57401;SDS011;43226;51.110;6.998;2023-09-12T09:31:04;6.00;;;5.40;;
57401;SDS011;43226;51.110;6.998;2023-09-12T09:33:34;6.67;;;4.67;;
57401;SDS011;43226;51.110;6.998;2023-09-12T09:36:03;7.60;;;5.40;;
57401;SDS011;43226;51.110;6.998;2023-09-12T09:38:29;11.03;;;5.60;;
57401;SDS011;43226;51.110;6.998;2023-09-12T09:40:54;5.10;;;4.70;;
57401;SDS011;43226;51.110;6.998;2023-09-12T09:43:20;9.00;;;5.17;;
57401;SDS011;43226;51.110;6.998;2023-09-12T09:45:46;6.10;;;4.50;;
57401;SDS011;43226;51.110;6.998;2023-09-12T09:48:20;6.13;;;4.40;;
57401;SDS011;43226;51.110;6.998;2023-09-12T09:50:46;4.00;;;3.60;;
57401;SDS011;43226;51.110;6.998;2023-09-12T09:53:11;5.83;;;3.90;;
57401;SDS011;43226;51.110;6.998;2023-09-12T09:55:37;4.23;;;3.83;;
57401;SDS011;43226;51.110;6.998;2023-09-12T09:58:02;10.10;;;3.80;;
57401;SDS011;43226;51.110;6.998;2023-09-12T10:00:30;4.93;;;4.43;;
57401;SDS011;43226;51.110;6.998;2023-09-12T10:02:56;6.90;;;3.83;;
57401;SDS011;43226;51.110;6.998;2023-09-12T10:05:22;5.27;;;4.00;;
57401;SDS011;43226;51.110;6.998;2023-09-12T10:07:48;6.57;;;3.63;;
57401;SDS011;43226;51.110;6.998;2023-09-12T10:10:17;6.10;;;4.37;;
57401;SDS011;43226;51.110;6.998;2023-09-12T10:12:45;4.60;;;4.13;;
57401;SDS011;43226;51.110;6.998;2023-09-12T10:15:13;7.10;;;4.40;;
57401;SDS011;43226;51.110;6.998;2023-09-12T10:17:42;5.77;;;4.53;;
57401;SDS011;43226;51.110;6.998;2023-09-12T10:20:08;6.23;;;4.07;;
57401;SDS011;43226;51.110;6.998;2023-09-12T10:23:10;5.80;;;4.23;;
57401;SDS011;43226;51.110;6.998;2023-09-12T10:25:28;5.27;;;4.67;;
57401;SDS011;43226;51.110;6.998;2023-09-12T10:27:53;5.80;;;4.30;;
57401;SDS011;43226;51.110;6.998;2023-09-12T10:30:19;7.27;;;4.67;;
57401;SDS011;43226;51.110;6.998;2023-09-12T10:32:45;5.00;;;4.60;;
57401;SDS011;43226;51.110;6.998;2023-09-12T10:35:10;5.27;;;4.70;;
57401;SDS011;43226;51.110;6.998;2023-09-12T10:37:37;7.90;;;4.63;;
57401;SDS011;43226;51.110;6.998;2023-09-12T10:40:06;10.80;;;5.20;;
57401;SDS011;43226;51.110;6.998;2023-09-12T10:42:32;8.63;;;5.07;;
57401;SDS011;43226;51.110;6.998;2023-09-12T10:44:58;7.20;;;4.37;;
57401;SDS011;43226;51.110;6.998;2023-09-12T10:47:24;7.60;;;4.20;;
57401;SDS011;43226;51.110;6.998;2023-09-12T10:49:49;6.73;;;5.00;;
57401;SDS011;43226;51.110;6.998;2023-09-12T10:52:25;4.50;;;4.10;;
57401;SDS011;43226;51.110;6.998;2023-09-12T10:54:50;4.90;;;4.43;;
57401;SDS011;43226;51.110;6.998;2023-09-12T10:57:16;5.93;;;4.83;;
57401;SDS011;43226;51.110;6.998;2023-09-12T11:00:23;6.17;;;4.90;;
57401;SDS011;43226;51.110;6.998;2023-09-12T11:02:33;4.77;;;4.37;;
57401;SDS011;43226;51.110;6.998;2023-09-12T11:04:59;8.07;;;5.20;;
57401;SDS011;43226;51.110;6.998;2023-09-12T11:10:18;5.00;;;4.50;;
57401;SDS011;43226;51.110;6.998;2023-09-12T11:12:44;6.20;;;4.73;;
57401;SDS011;43226;51.110;6.998;2023-09-12T11:15:10;8.10;;;4.50;;
57401;SDS011;43226;51.110;6.998;2023-09-12T11:17:39;6.90;;;5.30;;
57401;SDS011;43226;51.110;6.998;2023-09-12T11:20:04;5.20;;;4.70;;
57401;SDS011;43226;51.110;6.998;2023-09-12T11:22:35;6.00;;;5.40;;
57401;SDS011;43226;51.110;6.998;2023-09-12T11:25:02;5.30;;;4.80;;
57401;SDS011;43226;51.110;6.998;2023-09-12T11:28:15;9.37;;;5.20;;
57401;SDS011;43226;51.110;6.998;2023-09-12T11:30:16;5.47;;;4.70;;
57401;SDS011;43226;51.110;6.998;2023-09-12T11:32:42;7.37;;;5.40;;
57401;SDS011;43226;51.110;6.998;2023-09-12T11:35:09;10.37;;;5.47;;
57401;SDS011;43226;51.110;6.998;2023-09-12T11:37:35;5.30;;;4.80;;
57401;SDS011;43226;51.110;6.998;2023-09-12T11:40:02;5.10;;;4.60;;
57401;SDS011;43226;51.110;6.998;2023-09-12T11:42:27;5.37;;;4.83;;
57401;SDS011;43226;51.110;6.998;2023-09-12T11:44:53;10.17;;;5.33;;
57401;SDS011;43226;51.110;6.998;2023-09-12T11:47:19;6.40;;;4.80;;
57401;SDS011;43226;51.110;6.998;2023-09-12T11:49:45;8.23;;;5.10;;
57401;SDS011;43226;51.110;6.998;2023-09-12T11:52:11;7.67;;;4.30;;
57401;SDS011;43226;51.110;6.998;2023-09-12T11:54:38;4.27;;;3.90;;
57401;SDS011;43226;51.110;6.998;2023-09-12T11:57:03;6.07;;;5.00;;
57401;SDS011;43226;51.110;6.998;2023-09-12T11:59:29;6.83;;;4.30;;
57401;SDS011;43226;51.110;6.998;2023-09-12T12:01:54;6.00;;;4.20;;
57401;SDS011;43226;51.110;6.998;2023-09-12T12:04:23;5.27;;;4.13;;
57401;SDS011;43226;51.110;6.998;2023-09-12T12:06:49;4.27;;;3.87;;
57401;SDS011;43226;51.110;6.998;2023-09-12T12:09:15;5.23;;;4.63;;
57401;SDS011;43226;51.110;6.998;2023-09-12T12:11:43;7.03;;;4.00;;
57401;SDS011;43226;51.110;6.998;2023-09-12T12:14:15;4.40;;;4.00;;
57401;SDS011;43226;51.110;6.998;2023-09-12T12:16:43;7.73;;;4.17;;
57401;SDS011;43226;51.110;6.998;2023-09-12T12:19:09;4.87;;;3.90;;
57401;SDS011;43226;51.110;6.998;2023-09-12T12:21:36;4.80;;;4.13;;
57401;SDS011;43226;51.110;6.998;2023-09-12T12:24:01;4.70;;;3.93;;
57401;SDS011;43226;51.110;6.998;2023-09-12T12:26:27;5.37;;;3.87;;
57401;SDS011;43226;51.110;6.998;2023-09-12T12:28:53;10.93;;;4.30;;
57401;SDS011;43226;51.110;6.998;2023-09-12T12:31:18;4.40;;;3.70;;
57401;SDS011;43226;51.110;6.998;2023-09-12T12:33:53;4.10;;;3.70;;
57401;SDS011;43226;51.110;6.998;2023-09-12T12:36:18;7.20;;;4.73;;
57401;SDS011;43226;51.110;6.998;2023-09-12T12:38:45;7.10;;;4.13;;
57401;SDS011;43226;51.110;6.998;2023-09-12T12:41:10;11.10;;;4.00;;
57401;SDS011;43226;51.110;6.998;2023-09-12T12:43:36;6.40;;;3.80;;
57401;SDS011;43226;51.110;6.998;2023-09-12T12:46:04;8.10;;;3.97;;
57401;SDS011;43226;51.110;6.998;2023-09-12T12:48:35;10.70;;;4.40;;
57401;SDS011;43226;51.110;6.998;2023-09-12T12:51:17;5.70;;;3.90;;
57401;SDS011;43226;51.110;6.998;2023-09-12T12:53:46;4.07;;;3.77;;
57401;SDS011;43226;51.110;6.998;2023-09-12T12:56:14;11.40;;;5.63;;
57401;SDS011;43226;51.110;6.998;2023-09-12T12:58:45;6.93;;;4.50;;
57401;SDS011;43226;51.110;6.998;2023-09-12T13:01:10;5.07;;;4.60;;
57401;SDS011;43226;51.110;6.998;2023-09-12T13:03:35;3.97;;;3.37;;
57401;SDS011;43226;51.110;6.998;2023-09-12T13:06:00;4.93;;;3.90;;
57401;SDS011;43226;51.110;6.998;2023-09-12T13:08:25;9.40;;;4.17;;
57401;SDS011;43226;51.110;6.998;2023-09-12T13:10:50;5.23;;;4.07;;
57401;SDS011;43226;51.110;6.998;2023-09-12T13:13:16;6.77;;;4.10;;
57401;SDS011;43226;51.110;6.998;2023-09-12T13:15:41;4.20;;;3.80;;
57401;SDS011;43226;51.110;6.998;2023-09-12T13:18:06;6.80;;;4.63;;
57401;SDS011;43226;51.110;6.998;2023-09-12T13:20:31;5.60;;;4.50;;
57401;SDS011;43226;51.110;6.998;2023-09-12T13:22:56;6.13;;;4.10;;
57401;SDS011;43226;51.110;6.998;2023-09-12T13:25:22;4.37;;;3.97;;
57401;SDS011;43226;51.110;6.998;2023-09-12T13:27:48;4.87;;;4.20;;
57401;SDS011;43226;51.110;6.998;2023-09-12T13:30:14;9.07;;;4.80;;
57401;SDS011;43226;51.110;6.998;2023-09-12T13:32:39;7.00;;;4.07;;
57401;SDS011;43226;51.110;6.998;2023-09-12T13:35:04;9.57;;;4.13;;
57401;SDS011;43226;51.110;6.998;2023-09-12T13:37:30;5.90;;;4.30;;
57401;SDS011;43226;51.110;6.998;2023-09-12T13:39:55;4.97;;;4.47;;
57401;SDS011;43226;51.110;6.998;2023-09-12T13:42:21;5.10;;;4.10;;
57401;SDS011;43226;51.110;6.998;2023-09-12T13:44:49;4.50;;;4.10;;
57401;SDS011;43226;51.110;6.998;2023-09-12T13:47:14;5.57;;;3.90;;
57401;SDS011;43226;51.110;6.998;2023-09-12T13:49:46;7.70;;;3.77;;
57401;SDS011;43226;51.110;6.998;2023-09-12T13:52:11;4.30;;;3.90;;
57401;SDS011;43226;51.110;6.998;2023-09-12T13:54:36;5.87;;;4.47;;
57401;SDS011;43226;51.110;6.998;2023-09-12T13:57:01;5.32;;;4.07;;
57401;SDS011;43226;51.110;6.998;2023-09-12T13:59:27;4.27;;;3.90;;
57401;SDS011;43226;51.110;6.998;2023-09-12T14:01:52;6.30;;;4.10;;
57401;SDS011;43226;51.110;6.998;2023-09-12T14:04:18;5.93;;;4.60;;
57401;SDS011;43226;51.110;6.998;2023-09-12T14:06:43;7.33;;;4.60;;
57401;SDS011;43226;51.110;6.998;2023-09-12T14:09:08;5.50;;;4.50;;
57401;SDS011;43226;51.110;6.998;2023-09-12T14:11:34;4.47;;;4.07;;
57401;SDS011;43226;51.110;6.998;2023-09-12T14:14:00;8.00;;;4.40;;
57401;SDS011;43226;51.110;6.998;2023-09-12T14:16:25;5.20;;;4.10;;
57401;SDS011;43226;51.110;6.998;2023-09-12T14:18:50;9.43;;;5.10;;
57401;SDS011;43226;51.110;6.998;2023-09-12T14:21:15;8.77;;;5.23;;
57401;SDS011;43226;51.110;6.998;2023-09-12T14:23:40;4.80;;;4.30;;
57401;SDS011;43226;51.110;6.998;2023-09-12T14:26:05;5.30;;;4.80;;
57401;SDS011;43226;51.110;6.998;2023-09-12T14:28:31;5.80;;;4.30;;
57401;SDS011;43226;51.110;6.998;2023-09-12T14:30:59;4.80;;;4.00;;
57401;SDS011;43226;51.110;6.998;2023-09-12T14:33:24;6.63;;;4.70;;
57401;SDS011;43226;51.110;6.998;2023-09-12T14:35:49;8.07;;;4.60;;
57401;SDS011;43226;51.110;6.998;2023-09-12T14:38:14;9.18;;;3.83;;